Time;durP1;ratioP1;P1;durP2;ratioP2;P2;SDS_P1;SDS_P2;PMS_P1;PMS_P2;Temp;Humidity;BMP_temperature;BMP_pressure;BME280_temperature;BME280_humidity;BME280_pressure;Samples;Min_cycle;Max_cycle;Signal;HPM_P1;HPM_P2
2021/03/27 00:01:12;;;;;;;24.25;18.20;;;12.60;61.30;;;;;;5070122;28;20029;-52
2021/03/27 00:03:47;;;;;;;22.02;18.25;;;12.60;61.70;;;;;;5067415;28;20044;-56
2021/03/27 00:06:22;;;;;;;21.08;17.45;;;12.60;61.80;;;;;;5070647;28;20361;-54
2021/03/27 00:08:57;;;;;;;22.00;17.90;;;12.60;61.80;;;;;;5067759;28;20507;-56
2021/03/27 00:11:44;;;;;;;23.75;19.20;;;12.60;61.90;;;;;;5067452;28;20025;-54
2021/03/27 00:14:17;;;;;;;25.80;18.75;;;12.50;62.00;;;;;;5072393;28;20079;-55
2021/03/27 00:16:51;;;;;;;25.30;18.13;;;12.60;62.00;;;;;;5073374;28;20016;-51
2021/03/27 00:19:20;;;;;;;21.65;17.40;;;12.50;62.00;;;;;;5073210;28;20059;-55
2021/03/27 00:21:59;;;;;;;19.63;17.25;;;12.50;62.20;;;;;;5073112;28;20447;-53
2021/03/27 00:24:36;;;;;;;22.23;17.25;;;12.50;62.40;;;;;;5055344;28;20039;-56
2021/03/27 00:27:09;;;;;;;22.50;18.55;;;12.50;62.40;;;;;;5073061;28;20031;-52
2021/03/27 00:29:49;;;;;;;23.58;18.17;;;12.50;62.40;;;;;;5072975;28;20037;-56
2021/03/27 00:32:28;;;;;;;28.35;19.10;;;12.40;62.50;;;;;;5073374;28;20028;-60
2021/03/27 00:34:57;;;;;;;24.60;17.95;;;12.40;62.90;;;;;;5055245;28;20516;-57
2021/03/27 00:37:27;;;;;;;21.08;17.55;;;12.30;63.00;;;;;;5055048;28;20043;-58
2021/03/27 00:39:58;;;;;;;24.58;20.17;;;12.30;63.10;;;;;;5072499;28;20055;-57
2021/03/27 00:42:28;;;;;;;23.83;19.05;;;12.30;63.10;;;;;;5072919;28;20392;-51
2021/03/27 00:44:58;;;;;;;21.70;18.83;;;12.40;63.10;;;;;;5065025;28;20040;-50
2021/03/27 00:47:28;;;;;;;23.90;19.17;;;12.40;63.20;;;;;;5055189;28;20033;-52
2021/03/27 00:50:05;;;;;;;23.45;18.42;;;12.40;63.30;;;;;;5054883;28;20062;-51
2021/03/27 00:52:37;;;;;;;24.08;19.75;;;12.40;63.40;;;;;;5070781;28;20040;-54
2021/03/27 00:55:09;;;;;;;25.95;19.45;;;12.40;63.40;;;;;;5060358;28;20087;-51
2021/03/27 00:57:45;;;;;;;26.48;20.33;;;12.30;63.50;;;;;;5067334;28;20036;-51
2021/03/27 01:00:14;;;;;;;22.13;18.95;;;12.30;63.60;;;;;;5067485;28;20036;-56
2021/03/27 01:02:52;;;;;;;31.42;19.92;;;12.20;63.90;;;;;;5072247;28;20040;-55
2021/03/27 01:05:23;;;;;;;26.63;19.08;;;12.10;64.20;;;;;;5072046;28;20032;-54
2021/03/27 01:07:50;;;;;;;26.60;18.83;;;12.10;64.50;;;;;;5072201;28;20029;-55
2021/03/27 01:10:26;;;;;;;21.83;18.83;;;12.10;64.40;;;;;;5072658;28;20483;-56
2021/03/27 01:12:54;;;;;;;25.92;18.67;;;12.20;64.60;;;;;;5060613;28;20055;-55
2021/03/27 01:15:27;;;;;;;23.50;19.10;;;12.20;64.80;;;;;;5052879;28;20119;-54
2021/03/27 01:17:56;;;;;;;26.65;19.33;;;12.10;65.00;;;;;;5053272;28;20033;-57
2021/03/27 01:20:30;;;;;;;26.05;19.75;;;12.10;65.30;;;;;;5052813;28;20033;-55
2021/03/27 01:22:56;;;;;;;24.08;20.50;;;12.20;65.70;;;;;;5065947;28;20115;-54
2021/03/27 01:25:27;;;;;;;28.50;20.25;;;12.20;65.50;;;;;;5072514;28;20591;-56
2021/03/27 01:28:15;;;;;;;23.83;19.00;;;12.20;65.50;;;;;;5054501;28;20056;-55
2021/03/27 01:30:40;;;;;;;24.60;20.05;;;12.10;65.40;;;;;;5072534;28;20170;-55
2021/03/27 01:33:43;;;;;;;24.20;20.05;;;12.10;65.60;;;;;;5073681;28;20450;-56
2021/03/27 01:36:22;;;;;;;27.80;19.58;;;12.10;65.40;;;;;;5033756;28;20064;-52
2021/03/27 01:39:15;;;;;;;26.55;20.70;;;12.20;65.50;;;;;;5061070;28;20114;-53
2021/03/27 01:41:55;;;;;;;26.25;20.65;;;12.20;65.90;;;;;;5058798;28;20072;-58
2021/03/27 01:44:56;;;;;;;26.50;19.60;;;12.10;66.50;;;;;;5062631;28;20075;-55
2021/03/27 01:47:41;;;;;;;32.13;21.35;;;12.10;66.90;;;;;;5068270;28;20028;-56
2021/03/27 01:50:39;;;;;;;25.17;20.02;;;12.00;67.30;;;;;;5051800;28;20446;-56
2021/03/27 01:53:41;;;;;;;28.77;20.98;;;12.00;67.30;;;;;;5061079;28;20050;-59
2021/03/27 01:56:07;;;;;;;25.35;20.70;;;11.90;67.10;;;;;;5052172;28;20523;-57
2021/03/27 01:58:37;;;;;;;26.02;20.65;;;11.90;67.20;;;;;;5070678;28;20066;-55
2021/03/27 02:01:23;;;;;;;30.75;21.65;;;11.90;67.40;;;;;;5072001;28;20123;-59
2021/03/27 02:04:02;;;;;;;25.95;21.20;;;11.90;67.30;;;;;;5049691;28;20476;-54
2021/03/27 02:06:34;;;;;;;30.35;21.35;;;11.90;67.00;;;;;;5067673;28;20033;-53
2021/03/27 02:09:03;;;;;;;31.63;21.65;;;11.80;67.60;;;;;;5032241;28;20488;-52
2021/03/27 02:11:28;;;;;;;25.60;20.35;;;11.70;67.10;;;;;;5062002;28;20098;-54
2021/03/27 02:14:12;;;;;;;25.67;21.85;;;11.70;67.30;;;;;;5055750;28;20028;-51
2021/03/27 02:17:21;;;;;;;25.80;20.70;;;11.60;67.60;;;;;;5072896;28;20033;-54
2021/03/27 02:20:12;;;;;;;29.92;21.08;;;11.60;67.70;;;;;;5021862;28;20049;-60
2021/03/27 02:22:56;;;;;;;23.13;18.98;;;11.60;67.80;;;;;;5067987;28;20112;-55
2021/03/27 02:25:33;;;;;;;24.95;19.98;;;11.60;67.70;;;;;;5069746;28;20028;-62
2021/03/27 02:28:11;;;;;;;25.35;18.95;;;11.60;67.80;;;;;;5051639;28;20037;-52
2021/03/27 02:30:48;;;;;;;24.73;19.00;;;11.60;67.80;;;;;;5053464;28;20044;-53
2021/03/27 02:33:34;;;;;;;26.60;20.55;;;11.60;68.00;;;;;;5064031;28;20399;-52
2021/03/27 02:36:12;;;;;;;23.70;17.27;;;11.70;68.10;;;;;;5060484;28;20036;-56
2021/03/27 02:38:59;;;;;;;22.52;18.40;;;11.60;68.10;;;;;;5070249;28;20043;-55
2021/03/27 02:41:41;;;;;;;24.27;17.33;;;11.70;67.80;;;;;;5066538;28;20040;-55
2021/03/27 02:44:16;;;;;;;23.42;18.20;;;11.70;67.90;;;;;;5065063;28;20024;-52
2021/03/27 02:46:57;;;;;;;26.00;18.83;;;11.80;67.60;;;;;;5061502;28;20120;-55
2021/03/27 02:49:48;;;;;;;24.65;17.20;;;11.80;67.50;;;;;;5062693;28;20036;-52
2021/03/27 02:52:31;;;;;;;23.85;17.02;;;11.80;67.40;;;;;;5061677;28;20523;-55
2021/03/27 02:55:07;;;;;;;20.73;16.23;;;11.80;67.40;;;;;;5062414;28;20046;-53
2021/03/27 02:57:54;;;;;;;24.85;17.63;;;11.80;67.20;;;;;;5050650;28;20104;-52
2021/03/27 03:00:27;;;;;;;20.75;15.82;;;11.70;67.30;;;;;;5068896;28;20043;-54
2021/03/27 03:02:55;;;;;;;25.13;16.55;;;11.70;67.50;;;;;;5062657;28;20060;-56
2021/03/27 03:05:24;;;;;;;19.05;15.65;;;11.60;67.60;;;;;;5062454;28;20029;-52
2021/03/27 03:08:03;;;;;;;20.48;15.85;;;11.60;67.60;;;;;;5042594;28;20148;-53
2021/03/27 03:10:40;;;;;;;19.15;15.45;;;11.60;67.60;;;;;;5066386;28;20045;-55
2021/03/27 03:13:20;;;;;;;22.17;16.50;;;11.60;67.70;;;;;;5062452;28;20029;-52
2021/03/27 03:16:13;;;;;;;20.67;15.27;;;11.50;68.00;;;;;;5068267;28;20029;-51
2021/03/27 03:18:57;;;;;;;22.38;15.98;;;11.60;67.80;;;;;;5066936;28;20571;-50
2021/03/27 03:21:38;;;;;;;25.50;17.15;;;11.60;67.90;;;;;;5058704;28;20036;-53
2021/03/27 03:24:35;;;;;;;23.17;15.93;;;11.50;68.10;;;;;;5062393;28;20029;-56
2021/03/27 03:27:13;;;;;;;23.40;16.25;;;11.60;68.10;;;;;;5059655;28;20514;-52
2021/03/27 03:29:59;;;;;;;25.88;18.70;;;11.50;68.00;;;;;;5078827;28;20094;-53
2021/03/27 03:33:20;;;;;;;27.15;19.20;;;11.50;67.90;;;;;;5075036;28;20044;-52
2021/03/27 03:35:56;;;;;;;24.90;17.88;;;11.50;68.20;;;;;;4992373;28;20541;-54
2021/03/27 03:39:19;;;;;;;24.88;19.17;;;11.50;68.20;;;;;;5054328;28;20064;-54
2021/03/27 03:41:53;;;;;;;25.85;16.98;;;11.40;68.10;;;;;;5025049;28;20499;-52
2021/03/27 03:44:27;;;;;;;28.33;17.67;;;11.40;68.30;;;;;;5076901;28;20119;-56
2021/03/27 03:47:01;;;;;;;20.00;17.00;;;11.50;68.20;;;;;;5069424;28;20039;-57
2021/03/27 03:49:57;;;;;;;23.83;17.05;;;11.50;68.10;;;;;;5074940;28;20430;-56
2021/03/27 03:52:32;;;;;;;21.23;16.95;;;11.50;68.30;;;;;;5073965;28;20032;-57
2021/03/27 03:55:22;;;;;;;25.52;17.00;;;11.50;68.20;;;;;;5073940;28;20511;-55
2021/03/27 03:58:08;;;;;;;21.00;17.00;;;11.40;68.40;;;;;;5022301;28;20098;-57
2021/03/27 04:01:09;;;;;;;22.13;16.95;;;11.30;68.70;;;;;;5075079;28;20491;-56
2021/03/27 04:04:04;;;;;;;24.08;17.52;;;11.30;68.80;;;;;;5074431;28;20025;-53
2021/03/27 04:06:34;;;;;;;24.93;17.73;;;11.30;68.70;;;;;;5075102;28;20052;-58
2021/03/27 04:09:20;;;;;;;25.98;18.25;;;11.30;68.90;;;;;;5074659;28;20024;-55
2021/03/27 04:12:12;;;;;;;24.17;17.55;;;11.30;68.90;;;;;;5064938;28;20119;-52
2021/03/27 04:15:05;;;;;;;27.75;17.85;;;11.40;68.70;;;;;;5053295;28;20631;-53
2021/03/27 04:17:47;;;;;;;25.42;17.85;;;11.30;68.70;;;;;;5069093;28;20195;-58
2021/03/27 04:20:31;;;;;;;24.80;16.92;;;11.20;69.10;;;;;;5075242;28;20016;-53
2021/03/27 04:23:24;;;;;;;22.95;16.77;;;11.20;69.10;;;;;;5055119;28;20032;-58
2021/03/27 04:26:06;;;;;;;23.60;15.68;;;11.20;69.10;;;;;;5062807;28;20136;-56
2021/03/27 04:29:04;;;;;;;25.33;18.30;;;11.20;69.00;;;;;;5054825;28;20071;-56
2021/03/27 04:31:41;;;;;;;23.67;16.45;;;11.30;68.80;;;;;;5068737;28;20044;-51
2021/03/27 04:34:15;;;;;;;20.83;15.73;;;11.20;68.90;;;;;;5035494;28;20037;-54
2021/03/27 04:37:07;;;;;;;;;;;11.20;69.10;;;;;;5059203;28;20032;-57
2021/03/27 04:39:49;;;;;;;23.35;16.92;;;11.20;69.10;;;;;;5041586;28;19965;-53
2021/03/27 04:42:50;;;;;;;27.80;16.77;;;11.20;68.90;;;;;;5062433;28;20040;-54
2021/03/27 04:45:37;;;;;;;22.10;16.15;;;11.20;69.00;;;;;;5059685;28;20016;-50
2021/03/27 04:48:38;;;;;;;22.52;16.30;;;11.30;68.80;;;;;;5072640;28;20139;-55
2021/03/27 04:51:30;;;;;;;22.35;15.95;;;11.30;68.60;;;;;;4991228;28;20068;-54
2021/03/27 04:54:05;;;;;;;22.45;16.73;;;11.40;68.50;;;;;;5052022;28;20044;-51
2021/03/27 04:56:44;;;;;;;;;;;11.30;68.60;;;;;;5055915;28;20232;-55
2021/03/27 04:59:21;;;;;;;20.83;16.58;;;11.30;68.70;;;;;;5072356;28;19956;-55
2021/03/27 05:02:10;;;;;;;19.45;15.57;;;11.30;68.60;;;;;;5068620;28;20120;-55
2021/03/27 05:04:42;;;;;;;20.25;14.50;;;11.30;68.60;;;;;;5053310;28;20037;-51
2021/03/27 05:07:19;;;;;;;20.10;15.73;;;11.30;68.90;;;;;;5041725;28;20028;-51
2021/03/27 05:10:06;;;;;;;18.58;14.55;;;11.20;69.10;;;;;;5071883;28;20447;-52
2021/03/27 05:13:05;;;;;;;19.45;14.50;;;11.20;69.10;;;;;;5064511;28;20029;-55
2021/03/27 05:15:44;;;;;;;23.27;14.98;;;11.20;69.30;;;;;;5052532;28;20040;-54
2021/03/27 05:18:29;;;;;;;17.80;14.38;;;11.20;69.30;;;;;;5066396;28;20056;-54
2021/03/27 05:21:05;;;;;;;20.13;14.43;;;11.20;69.20;;;;;;5072772;28;20071;-54
2021/03/27 05:23:54;;;;;;;22.65;15.93;;;11.20;69.30;;;;;;5056827;28;20063;-50
2021/03/27 05:26:37;;;;;;;18.92;15.10;;;11.20;70.40;;;;;;5064066;28;20083;-52
2021/03/27 05:29:34;;;;;;;19.60;14.50;;;11.10;70.00;;;;;;5051852;28;20040;-58
2021/03/27 05:32:15;;;;;;;18.77;14.23;;;11.10;70.10;;;;;;5056468;28;20139;-53
2021/03/27 05:34:46;;;;;;;18.75;14.65;;;11.10;70.10;;;;;;5071982;28;20483;-51
2021/03/27 05:37:15;;;;;;;17.42;13.55;;;11.10;70.20;;;;;;5055598;28;20056;-56
2021/03/27 05:39:45;;;;;;;18.77;14.50;;;11.00;70.30;;;;;;5052042;28;20041;-54
2021/03/27 05:42:35;;;;;;;21.90;14.75;;;11.10;70.30;;;;;;5052773;28;20041;-53
2021/03/27 05:45:31;;;;;;;17.27;14.45;;;11.10;70.40;;;;;;5055696;28;20058;-58
2021/03/27 05:48:26;;;;;;;18.65;14.38;;;11.00;70.60;;;;;;5052101;28;20060;-56
2021/03/27 05:51:25;;;;;;;24.88;14.70;;;11.00;70.80;;;;;;5052154;28;20091;-52
2021/03/27 05:54:19;;;;;;;23.80;15.25;;;11.10;70.80;;;;;;5052684;28;20033;-52
2021/03/27 05:57:09;;;;;;;21.38;15.30;;;11.10;70.80;;;;;;5062283;28;20048;-59
2021/03/27 06:00:10;;;;;;;22.60;16.02;;;11.10;70.70;;;;;;5053408;28;20056;-57
2021/03/27 06:03:13;;;;;;;19.48;14.10;;;11.20;70.60;;;;;;5070535;28;20040;-52
2021/03/27 06:06:20;;;;;;;23.52;15.00;;;11.20;70.60;;;;;;5072238;28;20043;-54
2021/03/27 06:09:11;;;;;;;19.58;14.57;;;11.30;70.50;;;;;;5028331;28;20052;-56
2021/03/27 06:12:15;;;;;;;26.13;20.65;;;11.20;70.50;;;;;;5064274;28;20036;-58
2021/03/27 06:15:11;;;;;;;19.15;13.13;;;11.30;70.60;;;;;;5053140;28;20369;-52
2021/03/27 06:18:40;;;;;;;20.02;13.55;;;11.30;70.60;;;;;;5063194;28;20051;-52
2021/03/27 06:21:14;;;;;;;19.40;13.90;;;11.30;71.00;;;;;;5036165;28;20395;-53
2021/03/27 06:24:26;;;;;;;21.83;13.87;;;11.20;71.60;;;;;;5072296;28;20105;-56
2021/03/27 06:27:19;;;;;;;18.55;13.18;;;11.10;72.20;;;;;;5058886;28;20109;-54
2021/03/27 06:30:09;;;;;;;15.80;12.80;;;11.10;72.60;;;;;;5072312;28;20028;-55
2021/03/27 06:33:36;;;;;;;18.73;13.27;;;11.00;73.10;;;;;;5072054;28;20475;-59
2021/03/27 06:36:20;;;;;;;;;;;11.00;73.40;;;;;;5072267;28;20054;-57
2021/03/27 06:38:45;;;;;;;17.50;8.98;;;11.00;74.90;;;;;;5052162;28;19910;-54
2021/03/27 06:41:41;;;;;;;15.27;7.65;;;10.70;75.00;;;;;;5053433;28;20035;-55
2021/03/27 06:44:28;;;;;;;14.80;5.45;;;10.30;75.60;;;;;;5071621;28;20167;-56
2021/03/27 06:46:56;;;;;;;7.85;4.10;;;9.70;76.90;;;;;;5057525;28;20033;-55
2021/03/27 06:49:30;;;;;;;6.78;3.55;;;9.40;77.30;;;;;;5071579;28;20029;-55
2021/03/27 06:52:02;;;;;;;6.55;3.58;;;9.10;78.60;;;;;;5065933;28;20036;-57
2021/03/27 06:54:33;;;;;;;5.10;3.35;;;9.00;79.30;;;;;;5052194;28;20049;-56
2021/03/27 06:57:02;;;;;;;4.85;2.90;;;9.00;79.50;;;;;;5057453;28;20060;-53
2021/03/27 06:59:55;;;;;;;5.72;3.13;;;8.80;79.90;;;;;;5071852;28;20032;-54
2021/03/27 07:02:38;;;;;;;4.60;3.05;;;8.80;80.10;;;;;;5064276;28;20017;-55
2021/03/27 07:05:36;;;;;;;3.40;2.97;;;8.80;80.20;;;;;;5056487;28;20041;-58
2021/03/27 07:08:13;;;;;;;4.30;2.53;;;8.80;80.80;;;;;;5068682;28;20033;-54
2021/03/27 07:11:10;;;;;;;3.03;2.35;;;8.70;80.80;;;;;;5075694;28;20036;-52
2021/03/27 07:13:38;;;;;;;3.03;2.42;;;8.60;81.20;;;;;;5058557;28;20032;-54
2021/03/27 07:16:15;;;;;;;3.70;2.33;;;8.60;80.90;;;;;;5070587;28;20434;-59
2021/03/27 07:18:58;;;;;;;3.38;2.60;;;8.50;81.20;;;;;;5068262;28;20496;-56
2021/03/27 07:22:04;;;;;;;2.92;2.33;;;8.50;81.80;;;;;;5076091;28;20024;-55
2021/03/27 07:25:09;;;;;;;2.78;1.98;;;8.60;79.80;;;;;;5060068;28;20716;-55
2021/03/27 07:28:08;;;;;;;2.95;2.33;;;8.40;79.40;;;;;;5030135;28;20120;-58
2021/03/27 07:30:44;;;;;;;3.38;2.63;;;8.40;77.80;;;;;;5058899;28;20039;-56
2021/03/27 07:33:22;;;;;;;3.53;2.33;;;8.30;77.80;;;;;;5076251;28;20040;-53
2021/03/27 07:36:23;;;;;;;3.35;2.45;;;8.30;77.80;;;;;;5074373;28;20066;-54
2021/03/27 07:39:07;;;;;;;3.58;2.70;;;8.30;78.30;;;;;;5057233;28;20502;-56
2021/03/27 07:41:42;;;;;;;3.97;3.10;;;8.30;78.70;;;;;;5062766;28;20492;-53
2021/03/27 07:44:40;;;;;;;3.60;2.90;;;8.20;79.40;;;;;;5054869;28;20121;-54
2021/03/27 07:48:03;;;;;;;3.60;3.20;;;8.20;79.10;;;;;;5069163;28;20121;-52
2021/03/27 07:50:51;;;;;;;4.57;3.47;;;8.30;79.20;;;;;;4992874;28;20725;-53
2021/03/27 07:53:40;;;;;;;5.18;3.72;;;8.30;78.40;;;;;;4957749;28;20055;-60
2021/03/27 07:56:33;;;;;;;5.15;3.60;;;8.30;78.90;;;;;;5040170;28;20124;-56
2021/03/27 07:59:26;;;;;;;5.13;4.18;;;8.40;78.80;;;;;;5074357;28;20528;-54
2021/03/27 08:02:21;;;;;;;5.45;4.00;;;8.50;78.30;;;;;;5059759;28;20045;-52
2021/03/27 08:05:17;;;;;;;6.20;3.67;;;8.40;77.70;;;;;;5054632;28;20488;-57
2021/03/27 08:07:52;;;;;;;5.03;3.92;;;8.40;77.90;;;;;;5055042;28;20539;-58
2021/03/27 08:10:21;;;;;;;6.07;4.18;;;8.30;78.10;;;;;;5070875;28;20033;-56
2021/03/27 08:13:24;;;;;;;6.13;4.53;;;8.30;77.90;;;;;;5054740;28;20025;-53
2021/03/27 08:16:17;;;;;;;6.50;4.40;;;8.40;76.00;;;;;;5051024;28;20044;-53
2021/03/27 08:19:11;;;;;;;4.45;3.70;;;8.50;75.90;;;;;;5054184;28;20095;-56
2021/03/27 08:22:03;;;;;;;6.60;4.72;;;8.50;75.50;;;;;;5064418;28;20436;-56
2021/03/27 08:24:39;;;;;;;6.63;4.80;;;8.50;75.00;;;;;;5053362;28;20381;-56
2021/03/27 08:27:36;;;;;;;5.70;4.70;;;8.50;74.00;;;;;;5073641;28;20016;-55
2021/03/27 08:30:39;;;;;;;5.38;4.28;;;8.40;73.40;;;;;;5072490;28;20387;-53
2021/03/27 08:33:36;;;;;;;6.43;4.43;;;8.40;73.20;;;;;;5052298;28;20063;-54
2021/03/27 08:36:47;;;;;;;5.78;4.05;;;8.80;73.20;;;;;;5037726;28;20541;-56
2021/03/27 08:39:31;;;;;;;5.82;3.65;;;8.70;71.20;;;;;;5052124;28;20025;-55
2021/03/27 08:42:12;;;;;;;6.88;3.20;;;8.60;71.30;;;;;;5035848;28;20041;-56
2021/03/27 08:44:51;;;;;;;3.50;3.08;;;8.50;72.10;;;;;;5053704;28;20037;-55
2021/03/27 08:47:43;;;;;;;3.85;2.97;;;8.40;72.40;;;;;;5063596;28;20048;-53
2021/03/27 08:50:40;;;;;;;4.55;2.92;;;8.40;72.20;;;;;;5072833;28;20028;-57
2021/03/27 08:53:17;;;;;;;5.07;2.90;;;8.50;71.40;;;;;;5055465;28;20033;-54
2021/03/27 08:56:05;;;;;;;4.22;2.88;;;8.60;70.20;;;;;;5053978;28;20583;-56
2021/03/27 08:58:45;;;;;;;5.10;3.35;;;8.90;67.60;;;;;;5054779;28;20128;-56
2021/03/27 09:01:22;;;;;;;4.80;2.78;;;9.10;66.80;;;;;;5034701;28;20036;-56
2021/03/27 09:04:15;;;;;;;6.38;2.92;;;9.10;66.20;;;;;;5052716;28;20037;-58
2021/03/27 09:07:18;;;;;;;5.72;4.03;;;9.10;66.40;;;;;;5057786;28;20032;-55
2021/03/27 09:10:02;;;;;;;5.13;3.47;;;9.30;65.10;;;;;;5073459;28;20373;-54
2021/03/27 09:12:58;;;;;;;6.97;3.40;;;9.40;62.80;;;;;;5062860;28;20037;-56
2021/03/27 09:15:35;;;;;;;4.78;3.00;;;9.20;63.20;;;;;;5057300;28;20523;-55
2021/03/27 09:18:13;;;;;;;5.63;3.50;;;9.00;63.40;;;;;;5053539;28;20044;-56
2021/03/27 09:20:58;;;;;;;4.55;3.10;;;9.00;64.00;;;;;;5054490;28;20123;-56
2021/03/27 09:23:40;;;;;;;3.85;2.88;;;9.30;63.90;;;;;;5069264;28;20032;-56
2021/03/27 09:26:40;;;;;;;4.25;3.10;;;9.50;63.40;;;;;;5069364;28;20044;-56
2021/03/27 09:29:06;;;;;;;4.70;3.30;;;9.90;63.60;;;;;;5059412;28;20045;-55
2021/03/27 09:31:50;;;;;;;4.70;3.30;;;10.00;64.00;;;;;;5058132;28;20047;-55
2021/03/27 09:34:40;;;;;;;6.60;3.70;;;9.80;65.00;;;;;;5052477;28;20044;-57
2021/03/27 09:37:30;;;;;;;5.68;3.20;;;9.70;65.00;;;;;;5034792;28;20412;-55
2021/03/27 09:40:13;;;;;;;5.45;3.97;;;9.60;64.90;;;;;;5054276;28;20048;-53
2021/03/27 09:43:23;;;;;;;4.53;3.17;;;9.60;64.50;;;;;;5059181;28;20056;-53
2021/03/27 09:46:04;;;;;;;5.22;3.03;;;9.60;62.80;;;;;;5074673;28;20036;-58
2021/03/27 09:49:02;;;;;;;4.00;2.80;;;9.90;61.50;;;;;;5072127;28;20028;-55
2021/03/27 09:51:59;;;;;;;5.28;3.05;;;10.20;57.80;;;;;;5071174;28;20525;-56
2021/03/27 09:54:36;;;;;;;4.40;3.10;;;10.10;57.40;;;;;;5036080;28;20132;-53
2021/03/27 09:57:03;;;;;;;7.45;3.38;;;10.20;56.90;;;;;;5058993;28;20027;-53
2021/03/27 09:59:32;;;;;;;6.35;3.55;;;10.40;57.80;;;;;;5074958;28;20032;-56
2021/03/27 10:02:00;;;;;;;4.53;3.45;;;10.30;58.50;;;;;;5071496;28;20503;-60
2021/03/27 10:04:42;;;;;;;3.30;2.55;;;10.50;58.90;;;;;;5068150;28;20488;-57
2021/03/27 10:07:51;;;;;;;5.35;3.25;;;10.80;54.80;;;;;;5057842;28;20091;-52
2021/03/27 10:10:35;;;;;;;4.40;3.05;;;10.70;54.10;;;;;;5051240;28;20036;-56
2021/03/27 10:13:28;;;;;;;4.00;2.83;;;10.50;55.30;;;;;;5062533;28;20036;-57
2021/03/27 10:15:59;;;;;;;3.25;2.72;;;10.20;55.50;;;;;;5064045;28;20078;-57
2021/03/27 10:18:53;;;;;;;5.22;2.90;;;10.10;56.20;;;;;;5060370;28;20124;-58
2021/03/27 10:21:44;;;;;;;4.90;2.55;;;10.20;56.10;;;;;;5061135;28;20056;-59
2021/03/27 10:24:22;;;;;;;4.45;2.53;;;10.30;55.30;;;;;;5066090;28;20125;-56
2021/03/27 10:26:53;;;;;;;4.60;2.50;;;10.50;55.70;;;;;;5064604;28;20106;-56
2021/03/27 10:29:38;;;;;;;4.70;2.33;;;10.40;52.60;;;;;;5061684;28;20048;-56
2021/03/27 10:32:43;;;;;;;4.95;2.05;;;10.50;51.90;;;;;;5064870;28;20523;-55
2021/03/27 10:35:20;;;;;;;7.07;2.58;;;10.40;51.60;;;;;;5053396;28;20074;-57
2021/03/27 10:38:00;;;;;;;3.60;2.10;;;10.60;51.50;;;;;;5060427;28;20089;-54
2021/03/27 10:40:55;;;;;;;4.20;2.10;;;10.80;51.70;;;;;;5064381;28;20033;-55
2021/03/27 10:43:24;;;;;;;;;;;11.00;51.60;;;;;;5061280;28;20064;-59
2021/03/27 10:46:17;;;;;;;5.28;2.30;;;11.00;51.00;;;;;;5062395;28;19913;-55
2021/03/27 10:49:05;;;;;;;3.83;2.30;;;10.80;52.20;;;;;;5048932;28;20037;-55
2021/03/27 10:52:06;;;;;;;4.55;2.00;;;10.60;52.50;;;;;;5073774;28;20029;-58
2021/03/27 10:54:39;;;;;;;4.35;2.20;;;10.70;52.30;;;;;;5019253;28;20084;-56
2021/03/27 10:57:43;;;;;;;5.82;2.15;;;10.70;52.60;;;;;;5067460;28;20089;-56
2021/03/27 11:00:30;;;;;;;4.03;2.00;;;10.70;52.40;;;;;;5062963;28;20020;-54
2021/03/27 11:03:30;;;;;;;5.15;1.92;;;10.80;52.00;;;;;;5064242;28;20029;-59
2021/03/27 11:06:17;;;;;;;3.47;2.25;;;11.00;51.80;;;;;;5067389;28;20064;-52
2021/03/27 11:09:02;;;;;;;5.20;2.10;;;11.00;52.50;;;;;;5066481;28;20394;-55
2021/03/27 11:11:33;;;;;;;6.18;2.42;;;10.80;54.00;;;;;;5050139;28;20234;-55
2021/03/27 11:14:33;;;;;;;6.43;2.40;;;10.80;55.50;;;;;;5040752;28;20095;-55
2021/03/27 11:17:19;;;;;;;5.40;2.50;;;10.70;54.60;;;;;;5047305;28;20108;-56
2021/03/27 11:20:01;;;;;;;5.38;2.38;;;10.60;55.80;;;;;;5067409;28;20052;-57
2021/03/27 11:22:48;;;;;;;5.15;2.60;;;10.60;56.30;;;;;;5071725;28;20075;-55
2021/03/27 11:25:28;;;;;;;5.47;2.53;;;10.60;56.30;;;;;;5044111;28;20024;-57
2021/03/27 11:28:24;;;;;;;5.40;2.35;;;10.50;54.30;;;;;;5051453;28;20045;-55
2021/03/27 11:31:11;;;;;;;5.55;2.20;;;10.60;55.30;;;;;;5059638;28;20097;-53
2021/03/27 11:34:02;;;;;;;4.63;2.10;;;10.80;53.50;;;;;;5069113;28;20045;-52
2021/03/27 11:36:50;;;;;;;7.95;2.20;;;10.80;53.30;;;;;;5053618;28;20106;-52
2021/03/27 11:39:29;;;;;;;3.70;2.58;;;10.90;51.60;;;;;;5062555;28;20066;-56
2021/03/27 11:42:13;;;;;;;4.45;1.90;;;10.90;50.90;;;;;;5059083;28;20391;-56
2021/03/27 11:45:02;;;;;;;5.60;2.30;;;11.00;51.60;;;;;;5071668;28;20025;-57
2021/03/27 11:47:52;;;;;;;4.10;2.30;;;11.10;51.80;;;;;;5051217;28;20038;-53
2021/03/27 11:50:32;;;;;;;6.45;2.40;;;11.20;51.40;;;;;;5057486;28;20032;-55
2021/03/27 11:53:12;;;;;;;6.07;2.15;;;11.30;50.80;;;;;;5063590;28;20031;-55
2021/03/27 11:56:02;;;;;;;7.20;3.03;;;11.30;50.70;;;;;;5074002;28;20040;-53
2021/03/27 12:01:38;;;;;;;7.63;2.20;;;10.10;59.50;;;;;;5061471;28;20055;-56
2021/03/27 12:04:23;;;;;;;3.95;1.67;;;7.70;73.40;;;;;;5072423;28;20056;-55
2021/03/27 12:07:09;;;;;;;2.60;1.23;;;6.60;81.40;;;;;;5059038;28;20036;-55
2021/03/27 12:09:46;;;;;;;4.20;1.20;;;5.80;87.10;;;;;;5060078;28;20282;-57
2021/03/27 12:12:18;;;;;;;2.85;1.35;;;5.50;89.10;;;;;;5071468;28;20041;-54
2021/03/27 12:14:54;;;;;;;1.63;0.90;;;5.10;90.30;;;;;;5067096;28;20032;-57
2021/03/27 12:17:51;;;;;;;1.30;0.82;;;5.10;90.40;;;;;;5061363;28;20031;-58
2021/03/27 12:20:44;;;;;;;2.03;1.00;;;5.10;90.70;;;;;;5068178;28;20488;-55
2021/03/27 12:23:27;;;;;;;1.35;0.85;;;5.20;90.50;;;;;;5071420;28;20164;-57
2021/03/27 12:26:34;;;;;;;1.05;0.98;;;5.20;90.10;;;;;;5049343;28;20027;-55
2021/03/27 12:29:09;;;;;;;2.13;1.27;;;5.50;89.30;;;;;;5055016;28;20543;-57
2021/03/27 12:32:38;;;;;;;2.47;1.50;;;5.60;89.30;;;;;;5054150;28;20025;-57
2021/03/27 12:35:03;;;;;;;1.55;1.13;;;5.90;87.80;;;;;;4992194;28;20027;-54
2021/03/27 12:37:45;;;;;;;2.45;1.10;;;5.90;86.40;;;;;;4997169;28;20053;-55
2021/03/27 12:40:33;;;;;;;3.63;1.38;;;5.90;87.40;;;;;;5030475;28;20040;-56
2021/03/27 12:43:10;;;;;;;2.90;1.50;;;5.90;86.40;;;;;;5048068;28;20059;-56
2021/03/27 12:45:42;;;;;;;2.03;1.58;;;5.60;86.80;;;;;;5053321;28;20104;-56
2021/03/27 12:48:28;;;;;;;1.25;1.15;;;5.90;85.40;;;;;;5062350;28;20037;-58
2021/03/27 12:51:12;;;;;;;3.35;1.55;;;5.90;85.50;;;;;;5074080;28;20075;-58
2021/03/27 12:54:00;;;;;;;2.67;1.48;;;6.30;83.70;;;;;;5062370;28;20056;-59
2021/03/27 12:56:58;;;;;;;1.85;1.45;;;6.40;82.70;;;;;;5068686;28;20051;-57
2021/03/27 12:59:49;;;;;;;3.40;2.17;;;6.80;80.00;;;;;;5071724;28;20621;-56
2021/03/27 13:02:52;;;;;;;3.33;2.25;;;6.90;78.10;;;;;;5063858;28;20033;-60
2021/03/27 13:05:42;;;;;;;3.55;2.50;;;6.70;79.30;;;;;;5054345;28;20666;-56
2021/03/27 13:08:08;;;;;;;6.43;2.72;;;6.70;78.50;;;;;;5053553;28;20052;-56
2021/03/27 13:10:48;;;;;;;6.90;3.30;;;7.00;78.60;;;;;;5069697;28;20036;-55
2021/03/27 13:13:46;;;;;;;6.57;3.47;;;7.00;77.80;;;;;;5063930;28;20365;-55
2021/03/27 13:16:16;;;;;;;7.38;2.97;;;7.10;78.40;;;;;;5068279;28;20079;-55
2021/03/27 13:18:41;;;;;;;5.82;2.97;;;7.00;78.20;;;;;;5054895;28;20040;-57
2021/03/27 13:21:37;;;;;;;6.90;2.45;;;7.00;77.50;;;;;;5067119;28;20090;-60
2021/03/27 13:24:20;;;;;;;5.72;2.17;;;7.10;77.10;;;;;;5053072;28;20051;-59
2021/03/27 13:26:48;;;;;;;8.68;4.75;;;7.10;77.40;;;;;;5044660;28;20029;-57
2021/03/27 13:29:32;;;;;;;6.07;2.38;;;7.20;77.10;;;;;;5052683;28;20037;-54
2021/03/27 13:32:13;;;;;;;3.63;1.90;;;7.30;77.00;;;;;;5062132;28;20020;-58
2021/03/27 13:34:57;;;;;;;4.32;2.13;;;7.30;76.40;;;;;;5052926;28;20654;-57
2021/03/27 13:37:28;;;;;;;2.37;1.93;;;7.40;76.30;;;;;;5053663;28;20032;-58
2021/03/27 13:40:01;;;;;;;2.88;1.73;;;7.70;75.30;;;;;;5044982;28;20033;-51
2021/03/27 13:42:33;;;;;;;6.15;2.47;;;7.80;75.20;;;;;;5067685;28;20020;-55
2021/03/27 13:45:20;;;;;;;5.07;2.20;;;7.90;75.50;;;;;;5060740;28;20667;-57
2021/03/27 13:48:04;;;;;;;3.72;2.17;;;7.80;76.30;;;;;;5052613;28;20384;-59
2021/03/27 13:50:48;;;;;;;4.47;2.05;;;8.50;74.20;;;;;;5061202;28;20036;-56
2021/03/27 13:53:28;;;;;;;5.55;2.35;;;8.70;72.20;;;;;;5072530;28;20041;-55
2021/03/27 13:56:00;;;;;;;4.72;2.50;;;9.40;70.70;;;;;;5062005;28;20027;-55
2021/03/27 13:58:50;;;;;;;4.72;2.28;;;9.30;71.30;;;;;;5062626;28;20124;-56
2021/03/27 14:01:28;;;;;;;5.65;2.80;;;9.30;70.20;;;;;;5059953;28;20550;-51
2021/03/27 14:04:15;;;;;;;4.30;2.20;;;9.10;71.00;;;;;;5034337;28;20029;-55
2021/03/27 14:07:02;;;;;;;5.47;2.40;;;9.50;68.90;;;;;;5067056;28;20024;-55
2021/03/27 14:09:31;;;;;;;3.08;2.40;;;9.60;66.70;;;;;;5071785;28;20522;-56
2021/03/27 14:12:14;;;;;;;4.88;2.40;;;9.60;66.10;;;;;;5054885;28;20044;-53
2021/03/27 14:15:05;;;;;;;4.00;2.10;;;9.80;64.70;;;;;;5048686;28;20116;-57